sensor_id;sensor_type;location;lat;lon;timestamp;temperature;humidity
29713;DHT22;16623;53.632;10.016;2023-11-25T00:00:04;2.20;99.90
29713;DHT22;16623;53.632;10.016;2023-11-25T00:02:32;2.10;99.90
29713;DHT22;16623;53.632;10.016;2023-11-25T00:04:57;2.10;99.90
29713;DHT22;16623;53.632;10.016;2023-11-25T00:07:23;2.10;99.90
29713;DHT22;16623;53.632;10.016;2023-11-25T00:09:48;2.10;99.90
29713;DHT22;16623;53.632;10.016;2023-11-25T00:12:14;2.10;99.90
29713;DHT22;16623;53.632;10.016;2023-11-25T00:14:39;2.20;99.90
29713;DHT22;16623;53.632;10.016;2023-11-25T00:17:07;2.10;99.90
29713;DHT22;16623;53.632;10.016;2023-11-25T00:19:32;2.10;99.90
29713;DHT22;16623;53.632;10.016;2023-11-25T00:22:00;2.10;99.90
29713;DHT22;16623;53.632;10.016;2023-11-25T00:24:26;2.00;99.90
29713;DHT22;16623;53.632;10.016;2023-11-25T00:26:52;2.00;99.90
29713;DHT22;16623;53.632;10.016;2023-11-25T00:29:17;2.00;99.90
29713;DHT22;16623;53.632;10.016;2023-11-25T00:31:47;2.10;99.90
29713;DHT22;16623;53.632;10.016;2023-11-25T00:34:14;2.10;99.90
29713;DHT22;16623;53.632;10.016;2023-11-25T00:36:40;2.00;99.90
29713;DHT22;16623;53.632;10.016;2023-11-25T00:39:05;2.00;99.90
29713;DHT22;16623;53.632;10.016;2023-11-25T00:41:32;2.00;99.90
29713;DHT22;16623;53.632;10.016;2023-11-25T00:43:59;1.90;99.90
29713;DHT22;16623;53.632;10.016;2023-11-25T00:46:25;1.90;99.90
29713;DHT22;16623;53.632;10.016;2023-11-25T00:48:51;1.90;99.90
29713;DHT22;16623;53.632;10.016;2023-11-25T00:51:18;1.90;99.90
29713;DHT22;16623;53.632;10.016;2023-11-25T00:53:43;1.90;99.90
29713;DHT22;16623;53.632;10.016;2023-11-25T00:56:09;1.80;99.90
29713;DHT22;16623;53.632;10.016;2023-11-25T00:58:36;1.90;99.90
29713;DHT22;16623;53.632;10.016;2023-11-25T01:01:01;1.90;99.90
29713;DHT22;16623;53.632;10.016;2023-11-25T01:03:29;1.90;99.90
29713;DHT22;16623;53.632;10.016;2023-11-25T01:05:55;1.90;99.90
29713;DHT22;16623;53.632;10.016;2023-11-25T01:08:21;1.90;99.90
29713;DHT22;16623;53.632;10.016;2023-11-25T01:10:50;1.90;99.90
29713;DHT22;16623;53.632;10.016;2023-11-25T01:13:17;1.80;99.90
29713;DHT22;16623;53.632;10.016;2023-11-25T01:15:42;1.80;99.90
29713;DHT22;16623;53.632;10.016;2023-11-25T01:18:08;1.80;99.90
29713;DHT22;16623;53.632;10.016;2023-11-25T01:20:35;1.80;99.90
29713;DHT22;16623;53.632;10.016;2023-11-25T01:23:00;1.80;99.90
29713;DHT22;16623;53.632;10.016;2023-11-25T01:25:26;1.80;99.90
29713;DHT22;16623;53.632;10.016;2023-11-25T01:27:51;1.80;99.90
29713;DHT22;16623;53.632;10.016;2023-11-25T01:30:19;1.70;99.90
29713;DHT22;16623;53.632;10.016;2023-11-25T01:32:45;1.70;99.90
29713;DHT22;16623;53.632;10.016;2023-11-25T01:35:11;1.80;99.90
29713;DHT22;16623;53.632;10.016;2023-11-25T01:37:37;1.80;99.90
29713;DHT22;16623;53.632;10.016;2023-11-25T01:40:03;1.70;99.90
29713;DHT22;16623;53.632;10.016;2023-11-25T01:42:36;1.70;99.90
29713;DHT22;16623;53.632;10.016;2023-11-25T01:45:02;1.80;99.90
29713;DHT22;16623;53.632;10.016;2023-11-25T01:47:30;1.80;99.90
29713;DHT22;16623;53.632;10.016;2023-11-25T01:49:56;1.80;99.90
29713;DHT22;16623;53.632;10.016;2023-11-25T01:52:22;1.80;99.90
29713;DHT22;16623;53.632;10.016;2023-11-25T01:54:48;1.90;99.90
29713;DHT22;16623;53.632;10.016;2023-11-25T01:57:15;1.80;99.90
29713;DHT22;16623;53.632;10.016;2023-11-25T01:59:43;1.80;99.90
29713;DHT22;16623;53.632;10.016;2023-11-25T02:02:10;1.80;99.90
29713;DHT22;16623;53.632;10.016;2023-11-25T02:04:37;1.80;99.90
29713;DHT22;16623;53.632;10.016;2023-11-25T02:07:03;1.80;99.90
29713;DHT22;16623;53.632;10.016;2023-11-25T02:09:28;1.80;99.90
29713;DHT22;16623;53.632;10.016;2023-11-25T02:11:58;1.80;99.90
29713;DHT22;16623;53.632;10.016;2023-11-25T02:14:24;1.90;99.90
29713;DHT22;16623;53.632;10.016;2023-11-25T02:16:54;1.90;99.90
29713;DHT22;16623;53.632;10.016;2023-11-25T02:19:20;1.90;99.90
29713;DHT22;16623;53.632;10.016;2023-11-25T02:21:46;1.90;99.90
29713;DHT22;16623;53.632;10.016;2023-11-25T02:24:13;1.80;99.90
29713;DHT22;16623;53.632;10.016;2023-11-25T02:26:40;1.90;99.90
29713;DHT22;16623;53.632;10.016;2023-11-25T02:29:06;1.90;99.90
29713;DHT22;16623;53.632;10.016;2023-11-25T02:31:32;1.90;99.90
29713;DHT22;16623;53.632;10.016;2023-11-25T02:33:58;1.90;99.90
29713;DHT22;16623;53.632;10.016;2023-11-25T02:36:23;1.90;99.90
29713;DHT22;16623;53.632;10.016;2023-11-25T02:38:49;1.90;99.90
29713;DHT22;16623;53.632;10.016;2023-11-25T02:41:15;1.90;99.90
29713;DHT22;16623;53.632;10.016;2023-11-25T02:43:40;3.20;99.90
29713;DHT22;16623;53.632;10.016;2023-11-25T02:46:07;1.90;99.90
29713;DHT22;16623;53.632;10.016;2023-11-25T02:48:33;1.90;99.90
29713;DHT22;16623;53.632;10.016;2023-11-25T02:51:01;1.90;99.90
29713;DHT22;16623;53.632;10.016;2023-11-25T02:53:28;1.90;99.90
29713;DHT22;16623;53.632;10.016;2023-11-25T02:55:55;2.10;99.90
29713;DHT22;16623;53.632;10.016;2023-11-25T02:58:21;2.10;99.90
29713;DHT22;16623;53.632;10.016;2023-11-25T03:00:47;2.10;99.90
29713;DHT22;16623;53.632;10.016;2023-11-25T03:03:15;2.10;99.90
29713;DHT22;16623;53.632;10.016;2023-11-25T03:05:44;2.10;99.90
29713;DHT22;16623;53.632;10.016;2023-11-25T03:08:15;2.10;99.90
29713;DHT22;16623;53.632;10.016;2023-11-25T03:10:43;1.90;99.90
29713;DHT22;16623;53.632;10.016;2023-11-25T03:13:10;2.00;99.90
29713;DHT22;16623;53.632;10.016;2023-11-25T03:15:36;2.00;99.90
29713;DHT22;16623;53.632;10.016;2023-11-25T03:18:03;2.00;99.90
29713;DHT22;16623;53.632;10.016;2023-11-25T03:20:28;2.00;99.90
29713;DHT22;16623;53.632;10.016;2023-11-25T03:22:55;2.00;99.90
29713;DHT22;16623;53.632;10.016;2023-11-25T03:25:21;2.00;99.90
29713;DHT22;16623;53.632;10.016;2023-11-25T03:27:48;2.00;99.90
29713;DHT22;16623;53.632;10.016;2023-11-25T03:30:14;2.10;99.90
29713;DHT22;16623;53.632;10.016;2023-11-25T03:32:40;2.10;99.90
29713;DHT22;16623;53.632;10.016;2023-11-25T03:35:06;2.10;99.90
29713;DHT22;16623;53.632;10.016;2023-11-25T03:37:32;2.20;99.90
29713;DHT22;16623;53.632;10.016;2023-11-25T03:39:58;2.10;99.90
29713;DHT22;16623;53.632;10.016;2023-11-25T03:42:24;2.10;99.90
29713;DHT22;16623;53.632;10.016;2023-11-25T03:44:49;2.10;99.90
29713;DHT22;16623;53.632;10.016;2023-11-25T03:47:15;2.10;99.90
29713;DHT22;16623;53.632;10.016;2023-11-25T03:49:41;2.20;99.90
29713;DHT22;16623;53.632;10.016;2023-11-25T03:52:07;2.20;99.90
29713;DHT22;16623;53.632;10.016;2023-11-25T03:54:32;2.30;99.90
29713;DHT22;16623;53.632;10.016;2023-11-25T03:56:59;5.20;99.90
29713;DHT22;16623;53.632;10.016;2023-11-25T03:59:24;2.30;99.90
29713;DHT22;16623;53.632;10.016;2023-11-25T04:01:50;2.30;99.90
29713;DHT22;16623;53.632;10.016;2023-11-25T04:04:16;2.30;99.90
29713;DHT22;16623;53.632;10.016;2023-11-25T04:06:42;2.30;99.90
29713;DHT22;16623;53.632;10.016;2023-11-25T04:09:07;2.40;99.90
29713;DHT22;16623;53.632;10.016;2023-11-25T04:11:33;2.50;99.90
29713;DHT22;16623;53.632;10.016;2023-11-25T04:13:58;2.40;99.90
29713;DHT22;16623;53.632;10.016;2023-11-25T04:16:25;2.40;99.90
29713;DHT22;16623;53.632;10.016;2023-11-25T04:18:50;2.40;99.90
29713;DHT22;16623;53.632;10.016;2023-11-25T04:21:18;2.40;99.90
29713;DHT22;16623;53.632;10.016;2023-11-25T04:23:49;2.40;99.90
29713;DHT22;16623;53.632;10.016;2023-11-25T04:26:17;2.40;99.90
29713;DHT22;16623;53.632;10.016;2023-11-25T04:28:45;2.50;99.90
29713;DHT22;16623;53.632;10.016;2023-11-25T04:31:10;2.50;99.90
29713;DHT22;16623;53.632;10.016;2023-11-25T04:33:36;2.50;99.90
29713;DHT22;16623;53.632;10.016;2023-11-25T04:36:02;2.50;99.90
29713;DHT22;16623;53.632;10.016;2023-11-25T04:38:28;2.40;99.90
29713;DHT22;16623;53.632;10.016;2023-11-25T04:40:54;2.40;99.90
29713;DHT22;16623;53.632;10.016;2023-11-25T04:43:20;2.40;99.90
29713;DHT22;16623;53.632;10.016;2023-11-25T04:45:48;2.40;99.90
29713;DHT22;16623;53.632;10.016;2023-11-25T04:48:14;2.40;99.90
29713;DHT22;16623;53.632;10.016;2023-11-25T04:50:39;2.40;99.90
29713;DHT22;16623;53.632;10.016;2023-11-25T04:53:05;2.40;99.90
29713;DHT22;16623;53.632;10.016;2023-11-25T04:55:31;2.50;99.90
29713;DHT22;16623;53.632;10.016;2023-11-25T04:57:57;2.50;99.90
29713;DHT22;16623;53.632;10.016;2023-11-25T05:00:23;2.50;99.90
29713;DHT22;16623;53.632;10.016;2023-11-25T05:02:48;2.60;99.90
29713;DHT22;16623;53.632;10.016;2023-11-25T05:05:14;2.60;99.90
29713;DHT22;16623;53.632;10.016;2023-11-25T05:07:40;2.60;99.90
29713;DHT22;16623;53.632;10.016;2023-11-25T05:10:06;2.60;99.90
29713;DHT22;16623;53.632;10.016;2023-11-25T05:12:35;2.80;99.90
29713;DHT22;16623;53.632;10.016;2023-11-25T05:15:01;2.80;99.90
29713;DHT22;16623;53.632;10.016;2023-11-25T05:17:28;2.70;99.90
29713;DHT22;16623;53.632;10.016;2023-11-25T05:19:54;2.70;99.90
29713;DHT22;16623;53.632;10.016;2023-11-25T05:22:19;2.70;99.90
29713;DHT22;16623;53.632;10.016;2023-11-25T05:24:46;2.80;99.90
29713;DHT22;16623;53.632;10.016;2023-11-25T05:27:12;2.90;99.90
29713;DHT22;16623;53.632;10.016;2023-11-25T05:29:38;2.90;99.90
29713;DHT22;16623;53.632;10.016;2023-11-25T05:32:04;3.00;99.90
29713;DHT22;16623;53.632;10.016;2023-11-25T05:34:30;3.10;99.90
29713;DHT22;16623;53.632;10.016;2023-11-25T05:36:56;3.10;99.90
29713;DHT22;16623;53.632;10.016;2023-11-25T05:39:22;3.20;99.90
29713;DHT22;16623;53.632;10.016;2023-11-25T05:41:48;3.20;99.90
29713;DHT22;16623;53.632;10.016;2023-11-25T05:44:17;3.20;99.90
29713;DHT22;16623;53.632;10.016;2023-11-25T05:46:45;3.10;99.90
29713;DHT22;16623;53.632;10.016;2023-11-25T05:49:11;3.20;99.90
29713;DHT22;16623;53.632;10.016;2023-11-25T05:51:38;3.10;99.90
29713;DHT22;16623;53.632;10.016;2023-11-25T05:54:08;3.10;99.90
29713;DHT22;16623;53.632;10.016;2023-11-25T05:56:34;3.10;99.90
29713;DHT22;16623;53.632;10.016;2023-11-25T05:59:00;3.10;99.90
29713;DHT22;16623;53.632;10.016;2023-11-25T06:01:27;3.10;99.90
29713;DHT22;16623;53.632;10.016;2023-11-25T06:03:53;3.20;99.90
29713;DHT22;16623;53.632;10.016;2023-11-25T06:06:19;3.20;99.90
29713;DHT22;16623;53.632;10.016;2023-11-25T06:08:47;3.20;99.90
29713;DHT22;16623;53.632;10.016;2023-11-25T06:11:23;3.10;99.90
29713;DHT22;16623;53.632;10.016;2023-11-25T06:13:51;3.10;99.90
29713;DHT22;16623;53.632;10.016;2023-11-25T06:16:18;3.10;99.90
29713;DHT22;16623;53.632;10.016;2023-11-25T06:18:44;3.20;99.90
29713;DHT22;16623;53.632;10.016;2023-11-25T06:21:10;3.20;99.90
29713;DHT22;16623;53.632;10.016;2023-11-25T06:23:36;3.20;99.90
29713;DHT22;16623;53.632;10.016;2023-11-25T06:26:01;3.20;99.90
29713;DHT22;16623;53.632;10.016;2023-11-25T06:28:27;3.20;99.90
29713;DHT22;16623;53.632;10.016;2023-11-25T06:30:54;3.20;99.90
29713;DHT22;16623;53.632;10.016;2023-11-25T06:33:23;3.30;99.90
29713;DHT22;16623;53.632;10.016;2023-11-25T06:35:50;3.20;99.90
29713;DHT22;16623;53.632;10.016;2023-11-25T06:38:16;3.20;99.90
29713;DHT22;16623;53.632;10.016;2023-11-25T06:40:42;3.30;99.90
29713;DHT22;16623;53.632;10.016;2023-11-25T06:43:08;3.20;99.90
29713;DHT22;16623;53.632;10.016;2023-11-25T06:45:34;3.20;99.90
29713;DHT22;16623;53.632;10.016;2023-11-25T06:48:00;3.20;99.90
29713;DHT22;16623;53.632;10.016;2023-11-25T06:50:26;3.20;99.90
29713;DHT22;16623;53.632;10.016;2023-11-25T06:52:52;3.20;99.90
29713;DHT22;16623;53.632;10.016;2023-11-25T06:55:18;3.30;99.90
29713;DHT22;16623;53.632;10.016;2023-11-25T06:57:44;3.30;99.90
29713;DHT22;16623;53.632;10.016;2023-11-25T07:00:10;3.30;99.90
29713;DHT22;16623;53.632;10.016;2023-11-25T07:02:36;3.30;99.90
29713;DHT22;16623;53.632;10.016;2023-11-25T07:05:03;3.30;99.90
29713;DHT22;16623;53.632;10.016;2023-11-25T07:07:28;3.30;99.90
29713;DHT22;16623;53.632;10.016;2023-11-25T07:09:55;3.20;99.90
29713;DHT22;16623;53.632;10.016;2023-11-25T07:12:20;3.10;99.90
29713;DHT22;16623;53.632;10.016;2023-11-25T07:14:46;3.20;99.90
29713;DHT22;16623;53.632;10.016;2023-11-25T07:17:11;3.20;99.90
29713;DHT22;16623;53.632;10.016;2023-11-25T07:19:41;3.10;99.90
29713;DHT22;16623;53.632;10.016;2023-11-25T07:22:10;3.20;99.90
29713;DHT22;16623;53.632;10.016;2023-11-25T07:24:37;3.20;99.90
29713;DHT22;16623;53.632;10.016;2023-11-25T07:27:05;3.20;99.90
29713;DHT22;16623;53.632;10.016;2023-11-25T07:29:33;3.10;99.90
29713;DHT22;16623;53.632;10.016;2023-11-25T07:31:59;3.20;99.90
29713;DHT22;16623;53.632;10.016;2023-11-25T07:34:26;3.20;99.90
29713;DHT22;16623;53.632;10.016;2023-11-25T07:36:54;3.30;99.90
29713;DHT22;16623;53.632;10.016;2023-11-25T07:39:20;3.30;99.90
29713;DHT22;16623;53.632;10.016;2023-11-25T07:41:50;3.40;99.90
29713;DHT22;16623;53.632;10.016;2023-11-25T07:44:29;3.40;99.90
29713;DHT22;16623;53.632;10.016;2023-11-25T07:46:59;3.60;99.90
29713;DHT22;16623;53.632;10.016;2023-11-25T07:49:27;3.60;99.90
29713;DHT22;16623;53.632;10.016;2023-11-25T07:51:55;3.60;99.90
29713;DHT22;16623;53.632;10.016;2023-11-25T07:54:20;3.70;99.90
29713;DHT22;16623;53.632;10.016;2023-11-25T07:56:46;3.60;99.90
29713;DHT22;16623;53.632;10.016;2023-11-25T07:59:13;3.70;99.90
29713;DHT22;16623;53.632;10.016;2023-11-25T08:01:38;3.70;99.90
29713;DHT22;16623;53.632;10.016;2023-11-25T08:04:04;3.70;99.90
29713;DHT22;16623;53.632;10.016;2023-11-25T08:06:30;3.70;99.90
29713;DHT22;16623;53.632;10.016;2023-11-25T08:08:56;3.70;99.90
29713;DHT22;16623;53.632;10.016;2023-11-25T08:11:26;3.70;99.90
29713;DHT22;16623;53.632;10.016;2023-11-25T08:13:52;3.80;99.90
29713;DHT22;16623;53.632;10.016;2023-11-25T08:16:18;3.80;99.90
29713;DHT22;16623;53.632;10.016;2023-11-25T08:18:44;3.80;99.90
29713;DHT22;16623;53.632;10.016;2023-11-25T08:21:10;3.90;99.90
29713;DHT22;16623;53.632;10.016;2023-11-25T08:23:36;3.90;99.90
29713;DHT22;16623;53.632;10.016;2023-11-25T08:26:02;4.00;99.90
29713;DHT22;16623;53.632;10.016;2023-11-25T08:28:27;4.00;99.90
29713;DHT22;16623;53.632;10.016;2023-11-25T08:30:53;4.10;99.90
29713;DHT22;16623;53.632;10.016;2023-11-25T08:33:19;4.00;99.90
29713;DHT22;16623;53.632;10.016;2023-11-25T08:35:45;4.10;99.90
29713;DHT22;16623;53.632;10.016;2023-11-25T08:38:11;4.00;99.90
29713;DHT22;16623;53.632;10.016;2023-11-25T08:40:36;4.10;99.90
29713;DHT22;16623;53.632;10.016;2023-11-25T08:43:02;4.10;99.90
29713;DHT22;16623;53.632;10.016;2023-11-25T08:45:36;4.10;99.90
29713;DHT22;16623;53.632;10.016;2023-11-25T08:48:02;4.20;99.90
29713;DHT22;16623;53.632;10.016;2023-11-25T08:50:28;4.20;99.90
29713;DHT22;16623;53.632;10.016;2023-11-25T08:52:54;4.20;99.90
29713;DHT22;16623;53.632;10.016;2023-11-25T08:55:20;4.30;99.90
29713;DHT22;16623;53.632;10.016;2023-11-25T08:57:48;4.40;99.90
29713;DHT22;16623;53.632;10.016;2023-11-25T09:00:14;4.50;99.90
29713;DHT22;16623;53.632;10.016;2023-11-25T09:02:44;4.40;99.90
29713;DHT22;16623;53.632;10.016;2023-11-25T09:05:12;4.50;99.90
29713;DHT22;16623;53.632;10.016;2023-11-25T09:07:40;4.50;99.90
29713;DHT22;16623;53.632;10.016;2023-11-25T09:10:07;4.60;99.90
29713;DHT22;16623;53.632;10.016;2023-11-25T09:12:33;4.60;99.90
29713;DHT22;16623;53.632;10.016;2023-11-25T09:14:59;5.60;99.90
29713;DHT22;16623;53.632;10.016;2023-11-25T09:17:25;4.60;99.90
29713;DHT22;16623;53.632;10.016;2023-11-25T09:19:51;4.70;99.90
29713;DHT22;16623;53.632;10.016;2023-11-25T09:22:16;4.80;99.90
29713;DHT22;16623;53.632;10.016;2023-11-25T09:24:42;4.70;99.90
29713;DHT22;16623;53.632;10.016;2023-11-25T09:27:09;4.80;99.90
29713;DHT22;16623;53.632;10.016;2023-11-25T09:29:38;4.80;99.90
29713;DHT22;16623;53.632;10.016;2023-11-25T09:32:07;4.80;99.90
29713;DHT22;16623;53.632;10.016;2023-11-25T09:34:33;4.60;99.90
29713;DHT22;16623;53.632;10.016;2023-11-25T09:36:59;4.50;99.90
29713;DHT22;16623;53.632;10.016;2023-11-25T09:39:25;4.50;99.90
29713;DHT22;16623;53.632;10.016;2023-11-25T09:41:50;4.50;99.90
29713;DHT22;16623;53.632;10.016;2023-11-25T09:44:18;4.40;99.90
29713;DHT22;16623;53.632;10.016;2023-11-25T09:46:47;4.30;99.90
29713;DHT22;16623;53.632;10.016;2023-11-25T09:49:16;4.30;99.90
29713;DHT22;16623;53.632;10.016;2023-11-25T09:51:45;4.30;99.90
29713;DHT22;16623;53.632;10.016;2023-11-25T09:54:20;4.40;99.90
29713;DHT22;16623;53.632;10.016;2023-11-25T09:59:16;4.50;99.90
29713;DHT22;16623;53.632;10.016;2023-11-25T10:01:45;4.50;99.90
29713;DHT22;16623;53.632;10.016;2023-11-25T10:04:15;4.60;99.90
29713;DHT22;16623;53.632;10.016;2023-11-25T10:06:41;4.60;99.90
29713;DHT22;16623;53.632;10.016;2023-11-25T10:09:08;4.60;99.90
29713;DHT22;16623;53.632;10.016;2023-11-25T10:11:36;4.60;99.90
29713;DHT22;16623;53.632;10.016;2023-11-25T10:14:02;4.60;99.90
29713;DHT22;16623;53.632;10.016;2023-11-25T10:16:33;4.70;99.90
29713;DHT22;16623;53.632;10.016;2023-11-25T10:18:58;4.70;99.90
29713;DHT22;16623;53.632;10.016;2023-11-25T10:21:24;4.70;99.90
29713;DHT22;16623;53.632;10.016;2023-11-25T10:23:51;4.90;99.90
29713;DHT22;16623;53.632;10.016;2023-11-25T10:26:20;4.90;99.90
29713;DHT22;16623;53.632;10.016;2023-11-25T10:28:46;4.90;99.90
29713;DHT22;16623;53.632;10.016;2023-11-25T10:31:13;5.00;99.90
29713;DHT22;16623;53.632;10.016;2023-11-25T10:33:42;5.00;99.90
29713;DHT22;16623;53.632;10.016;2023-11-25T10:36:09;5.00;99.90
29713;DHT22;16623;53.632;10.016;2023-11-25T10:38:38;5.10;99.90
29713;DHT22;16623;53.632;10.016;2023-11-25T10:41:05;5.10;99.90
29713;DHT22;16623;53.632;10.016;2023-11-25T10:43:31;5.10;99.90
29713;DHT22;16623;53.632;10.016;2023-11-25T10:46:05;5.20;99.90
29713;DHT22;16623;53.632;10.016;2023-11-25T10:48:31;5.20;99.90
29713;DHT22;16623;53.632;10.016;2023-11-25T10:50:57;5.20;99.90
29713;DHT22;16623;53.632;10.016;2023-11-25T10:53:29;5.10;99.90
29713;DHT22;16623;53.632;10.016;2023-11-25T10:55:55;5.20;99.90
29713;DHT22;16623;53.632;10.016;2023-11-25T10:58:21;5.30;99.90
29713;DHT22;16623;53.632;10.016;2023-11-25T11:00:47;5.30;99.90
29713;DHT22;16623;53.632;10.016;2023-11-25T11:03:14;5.40;99.90
29713;DHT22;16623;53.632;10.016;2023-11-25T11:08:19;5.50;99.90
29713;DHT22;16623;53.632;10.016;2023-11-25T11:10:56;5.50;99.90
29713;DHT22;16623;53.632;10.016;2023-11-25T11:13:31;5.60;99.90
29713;DHT22;16623;53.632;10.016;2023-11-25T11:16:02;5.60;99.90
29713;DHT22;16623;53.632;10.016;2023-11-25T11:18:32;5.60;99.90
29713;DHT22;16623;53.632;10.016;2023-11-25T11:21:01;5.70;99.90
29713;DHT22;16623;53.632;10.016;2023-11-25T11:23:30;5.80;99.90
29713;DHT22;16623;53.632;10.016;2023-11-25T11:29:28;5.80;99.90
29713;DHT22;16623;53.632;10.016;2023-11-25T11:32:01;5.80;99.90
29713;DHT22;16623;53.632;10.016;2023-11-25T11:34:32;5.80;99.90
29713;DHT22;16623;53.632;10.016;2023-11-25T11:36:58;5.80;99.90
29713;DHT22;16623;53.632;10.016;2023-11-25T11:45:10;5.80;99.90
29713;DHT22;16623;53.632;10.016;2023-11-25T11:50:26;5.80;99.90
29713;DHT22;16623;53.632;10.016;2023-11-25T11:55:39;6.00;99.90
29713;DHT22;16623;53.632;10.016;2023-11-25T11:58:13;6.00;99.90
29713;DHT22;16623;53.632;10.016;2023-11-25T12:00:50;6.00;99.90
29713;DHT22;16623;53.632;10.016;2023-11-25T12:03:17;6.10;99.90
29713;DHT22;16623;53.632;10.016;2023-11-25T12:05:43;6.10;99.90
29713;DHT22;16623;53.632;10.016;2023-11-25T12:08:09;6.10;99.90
29713;DHT22;16623;53.632;10.016;2023-11-25T12:10:38;6.10;99.90
29713;DHT22;16623;53.632;10.016;2023-11-25T12:13:04;6.00;99.90
29713;DHT22;16623;53.632;10.016;2023-11-25T12:15:31;6.10;99.90
29713;DHT22;16623;53.632;10.016;2023-11-25T12:17:57;6.10;99.90
29713;DHT22;16623;53.632;10.016;2023-11-25T12:20:25;6.00;99.90
29713;DHT22;16623;53.632;10.016;2023-11-25T12:22:52;6.00;99.90
29713;DHT22;16623;53.632;10.016;2023-11-25T12:25:17;6.00;99.90
29713;DHT22;16623;53.632;10.016;2023-11-25T12:27:58;6.00;99.90
29713;DHT22;16623;53.632;10.016;2023-11-25T12:30:29;6.00;99.90
29713;DHT22;16623;53.632;10.016;2023-11-25T12:32:54;6.00;99.90
29713;DHT22;16623;53.632;10.016;2023-11-25T12:35:20;6.10;99.90
29713;DHT22;16623;53.632;10.016;2023-11-25T12:37:47;6.20;99.90
29713;DHT22;16623;53.632;10.016;2023-11-25T12:40:20;6.40;99.90
29713;DHT22;16623;53.632;10.016;2023-11-25T12:42:51;6.50;99.90
29713;DHT22;16623;53.632;10.016;2023-11-25T12:47:56;6.70;99.90
29713;DHT22;16623;53.632;10.016;2023-11-25T12:50:22;6.70;99.90
29713;DHT22;16623;53.632;10.016;2023-11-25T12:53:10;6.80;99.90
29713;DHT22;16623;53.632;10.016;2023-11-25T12:55:43;6.90;99.90
29713;DHT22;16623;53.632;10.016;2023-11-25T12:58:11;6.90;99.90
29713;DHT22;16623;53.632;10.016;2023-11-25T13:00:48;6.80;99.90
29713;DHT22;16623;53.632;10.016;2023-11-25T13:03:24;6.80;99.90
29713;DHT22;16623;53.632;10.016;2023-11-25T13:05:57;6.80;99.90
29713;DHT22;16623;53.632;10.016;2023-11-25T13:08:26;6.70;99.90
29713;DHT22;16623;53.632;10.016;2023-11-25T13:10:58;6.70;99.90
29713;DHT22;16623;53.632;10.016;2023-11-25T13:13:27;6.50;99.90
29713;DHT22;16623;53.632;10.016;2023-11-25T13:15:54;6.50;99.90
29713;DHT22;16623;53.632;10.016;2023-11-25T13:18:23;6.40;99.90
29713;DHT22;16623;53.632;10.016;2023-11-25T13:20:50;6.30;99.90
29713;DHT22;16623;53.632;10.016;2023-11-25T13:23:16;6.40;99.90
29713;DHT22;16623;53.632;10.016;2023-11-25T13:25:43;6.40;99.90
29713;DHT22;16623;53.632;10.016;2023-11-25T13:28:09;6.40;99.90
29713;DHT22;16623;53.632;10.016;2023-11-25T13:30:36;6.40;99.90
29713;DHT22;16623;53.632;10.016;2023-11-25T13:33:02;6.50;99.90
29713;DHT22;16623;53.632;10.016;2023-11-25T13:35:27;6.80;99.90
29713;DHT22;16623;53.632;10.016;2023-11-25T13:37:57;6.80;99.90
29713;DHT22;16623;53.632;10.016;2023-11-25T13:40:27;6.80;99.90
29713;DHT22;16623;53.632;10.016;2023-11-25T13:43:02;6.80;99.90
29713;DHT22;16623;53.632;10.016;2023-11-25T13:45:28;6.90;99.90
29713;DHT22;16623;53.632;10.016;2023-11-25T13:47:54;6.90;99.90
29713;DHT22;16623;53.632;10.016;2023-11-25T13:50:24;6.80;99.90
29713;DHT22;16623;53.632;10.016;2023-11-25T13:52:53;6.70;99.90
29713;DHT22;16623;53.632;10.016;2023-11-25T13:55:19;6.60;99.90
29713;DHT22;16623;53.632;10.016;2023-11-25T13:57:52;6.50;99.90
29713;DHT22;16623;53.632;10.016;2023-11-25T14:00:19;6.50;99.90
29713;DHT22;16623;53.632;10.016;2023-11-25T14:02:45;6.30;99.90
29713;DHT22;16623;53.632;10.016;2023-11-25T14:05:15;6.20;99.90
29713;DHT22;16623;53.632;10.016;2023-11-25T14:07:41;6.20;99.90
29713;DHT22;16623;53.632;10.016;2023-11-25T14:10:11;6.00;99.90
29713;DHT22;16623;53.632;10.016;2023-11-25T14:12:38;6.10;99.90
29713;DHT22;16623;53.632;10.016;2023-11-25T14:15:05;6.10;99.90
29713;DHT22;16623;53.632;10.016;2023-11-25T14:17:35;6.00;99.90
29713;DHT22;16623;53.632;10.016;2023-11-25T14:20:09;6.00;99.90
29713;DHT22;16623;53.632;10.016;2023-11-25T14:22:48;6.00;99.90
29713;DHT22;16623;53.632;10.016;2023-11-25T14:25:16;5.90;99.90
29713;DHT22;16623;53.632;10.016;2023-11-25T14:27:42;5.90;99.90
29713;DHT22;16623;53.632;10.016;2023-11-25T14:30:09;7.40;99.90
29713;DHT22;16623;53.632;10.016;2023-11-25T14:32:35;5.80;99.90
29713;DHT22;16623;53.632;10.016;2023-11-25T14:35:01;5.80;99.90
29713;DHT22;16623;53.632;10.016;2023-11-25T14:37:26;5.70;99.90
29713;DHT22;16623;53.632;10.016;2023-11-25T14:39:54;5.60;99.90
29713;DHT22;16623;53.632;10.016;2023-11-25T14:42:21;5.60;99.90
29713;DHT22;16623;53.632;10.016;2023-11-25T14:44:52;5.70;99.90
29713;DHT22;16623;53.632;10.016;2023-11-25T14:47:20;5.60;99.90
29713;DHT22;16623;53.632;10.016;2023-11-25T14:49:48;7.00;99.90
29713;DHT22;16623;53.632;10.016;2023-11-25T14:52:13;5.60;99.90
29713;DHT22;16623;53.632;10.016;2023-11-25T14:54:39;5.50;99.90
29713;DHT22;16623;53.632;10.016;2023-11-25T14:57:06;4.50;99.90
29713;DHT22;16623;53.632;10.016;2023-11-25T14:59:33;4.30;99.90
29713;DHT22;16623;53.632;10.016;2023-11-25T15:01:59;4.10;99.90
29713;DHT22;16623;53.632;10.016;2023-11-25T15:04:26;3.70;99.90
29713;DHT22;16623;53.632;10.016;2023-11-25T15:06:52;3.60;99.90
29713;DHT22;16623;53.632;10.016;2023-11-25T15:09:17;3.60;99.90
29713;DHT22;16623;53.632;10.016;2023-11-25T15:11:44;3.60;99.90
29713;DHT22;16623;53.632;10.016;2023-11-25T15:14:10;3.40;99.90
29713;DHT22;16623;53.632;10.016;2023-11-25T15:16:36;3.50;99.90
29713;DHT22;16623;53.632;10.016;2023-11-25T15:19:01;3.40;99.90
29713;DHT22;16623;53.632;10.016;2023-11-25T15:21:27;3.40;99.90
29713;DHT22;16623;53.632;10.016;2023-11-25T15:23:53;3.40;99.90
29713;DHT22;16623;53.632;10.016;2023-11-25T15:26:18;3.40;99.90
29713;DHT22;16623;53.632;10.016;2023-11-25T15:28:44;3.40;99.90
29713;DHT22;16623;53.632;10.016;2023-11-25T15:31:11;3.40;99.90
29713;DHT22;16623;53.632;10.016;2023-11-25T15:33:37;3.30;99.90
29713;DHT22;16623;53.632;10.016;2023-11-25T15:36:03;3.40;99.90
29713;DHT22;16623;53.632;10.016;2023-11-25T15:38:29;3.50;99.90
29713;DHT22;16623;53.632;10.016;2023-11-25T15:40:55;3.50;99.90
29713;DHT22;16623;53.632;10.016;2023-11-25T15:43:21;3.50;99.90
29713;DHT22;16623;53.632;10.016;2023-11-25T15:45:47;3.50;99.90
29713;DHT22;16623;53.632;10.016;2023-11-25T15:48:14;3.50;99.90
29713;DHT22;16623;53.632;10.016;2023-11-25T15:50:40;3.50;99.90